sensor_id;sensor_type;location;lat;lon;timestamp;temperature;humidity
14099;DHT22;7126;48.458;7.930;2022-11-23T00:00:25;8.20;99.90
14099;DHT22;7126;48.458;7.930;2022-11-23T00:02:54;8.10;99.90
14099;DHT22;7126;48.458;7.930;2022-11-23T00:05:20;8.00;99.90
14099;DHT22;7126;48.458;7.930;2022-11-23T00:07:45;8.00;99.90
14099;DHT22;7126;48.458;7.930;2022-11-23T00:10:11;7.90;99.90
14099;DHT22;7126;48.458;7.930;2022-11-23T00:12:37;7.80;99.90
14099;DHT22;7126;48.458;7.930;2022-11-23T00:15:04;7.80;99.90
14099;DHT22;7126;48.458;7.930;2022-11-23T00:17:30;7.80;99.90
14099;DHT22;7126;48.458;7.930;2022-11-23T00:19:56;7.80;99.90
14099;DHT22;7126;48.458;7.930;2022-11-23T00:22:21;7.70;99.90
14099;DHT22;7126;48.458;7.930;2022-11-23T00:24:47;7.70;99.90
14099;DHT22;7126;48.458;7.930;2022-11-23T00:27:12;7.70;99.90
14099;DHT22;7126;48.458;7.930;2022-11-23T00:29:38;7.70;99.90
14099;DHT22;7126;48.458;7.930;2022-11-23T00:32:03;7.70;99.90
14099;DHT22;7126;48.458;7.930;2022-11-23T00:34:29;7.70;99.90
14099;DHT22;7126;48.458;7.930;2022-11-23T00:36:55;7.70;99.90
14099;DHT22;7126;48.458;7.930;2022-11-23T00:39:20;7.70;99.90
14099;DHT22;7126;48.458;7.930;2022-11-23T00:41:46;7.70;99.90
14099;DHT22;7126;48.458;7.930;2022-11-23T00:44:11;7.70;99.90
14099;DHT22;7126;48.458;7.930;2022-11-23T00:46:37;7.70;99.90
14099;DHT22;7126;48.458;7.930;2022-11-23T00:49:02;7.70;99.90
14099;DHT22;7126;48.458;7.930;2022-11-23T00:51:30;7.70;99.90
14099;DHT22;7126;48.458;7.930;2022-11-23T00:53:56;7.70;99.90
14099;DHT22;7126;48.458;7.930;2022-11-23T00:56:22;7.70;99.90
14099;DHT22;7126;48.458;7.930;2022-11-23T00:58:52;7.70;99.90
14099;DHT22;7126;48.458;7.930;2022-11-23T01:01:21;7.70;99.90
14099;DHT22;7126;48.458;7.930;2022-11-23T01:03:49;7.70;99.90
14099;DHT22;7126;48.458;7.930;2022-11-23T01:06:18;7.60;99.90
14099;DHT22;7126;48.458;7.930;2022-11-23T01:08:58;7.60;99.90
14099;DHT22;7126;48.458;7.930;2022-11-23T01:11:26;7.60;99.90
14099;DHT22;7126;48.458;7.930;2022-11-23T01:13:52;7.60;99.90
14099;DHT22;7126;48.458;7.930;2022-11-23T01:16:21;7.60;99.90
14099;DHT22;7126;48.458;7.930;2022-11-23T01:18:54;7.60;99.90
14099;DHT22;7126;48.458;7.930;2022-11-23T01:21:20;7.60;99.90
14099;DHT22;7126;48.458;7.930;2022-11-23T01:23:46;7.70;99.90
14099;DHT22;7126;48.458;7.930;2022-11-23T01:26:11;7.70;99.90
14099;DHT22;7126;48.458;7.930;2022-11-23T01:28:38;7.70;99.90
14099;DHT22;7126;48.458;7.930;2022-11-23T01:31:06;7.70;99.90
14099;DHT22;7126;48.458;7.930;2022-11-23T01:33:32;7.70;99.90
14099;DHT22;7126;48.458;7.930;2022-11-23T01:35:58;7.70;99.90
14099;DHT22;7126;48.458;7.930;2022-11-23T01:38:24;7.70;99.90
14099;DHT22;7126;48.458;7.930;2022-11-23T01:40:49;7.80;99.90
14099;DHT22;7126;48.458;7.930;2022-11-23T01:43:16;7.70;99.90
14099;DHT22;7126;48.458;7.930;2022-11-23T01:46:03;7.80;99.90
14099;DHT22;7126;48.458;7.930;2022-11-23T01:48:45;7.80;99.90
14099;DHT22;7126;48.458;7.930;2022-11-23T01:51:34;7.80;99.90
14099;DHT22;7126;48.458;7.930;2022-11-23T01:54:05;7.90;99.90
14099;DHT22;7126;48.458;7.930;2022-11-23T01:56:39;7.90;99.90
14099;DHT22;7126;48.458;7.930;2022-11-23T01:59:09;7.80;99.90
14099;DHT22;7126;48.458;7.930;2022-11-23T02:01:35;7.80;99.90
14099;DHT22;7126;48.458;7.930;2022-11-23T02:04:02;7.80;99.90
14099;DHT22;7126;48.458;7.930;2022-11-23T02:06:29;7.80;99.90
14099;DHT22;7126;48.458;7.930;2022-11-23T02:08:56;7.90;99.90
14099;DHT22;7126;48.458;7.930;2022-11-23T02:11:22;7.90;99.90
14099;DHT22;7126;48.458;7.930;2022-11-23T02:13:49;7.90;99.90
14099;DHT22;7126;48.458;7.930;2022-11-23T02:16:16;7.90;99.90
14099;DHT22;7126;48.458;7.930;2022-11-23T02:18:43;7.90;99.90
14099;DHT22;7126;48.458;7.930;2022-11-23T02:21:10;7.90;99.90
14099;DHT22;7126;48.458;7.930;2022-11-23T02:23:56;7.90;99.90
14099;DHT22;7126;48.458;7.930;2022-11-23T02:26:26;7.90;99.90
14099;DHT22;7126;48.458;7.930;2022-11-23T02:29:02;7.90;99.90
14099;DHT22;7126;48.458;7.930;2022-11-23T02:31:30;7.90;99.90
14099;DHT22;7126;48.458;7.930;2022-11-23T02:33:56;8.00;99.90
14099;DHT22;7126;48.458;7.930;2022-11-23T02:39:16;8.00;99.90
14099;DHT22;7126;48.458;7.930;2022-11-23T02:41:50;8.10;99.90
14099;DHT22;7126;48.458;7.930;2022-11-23T02:44:38;8.10;99.90
14099;DHT22;7126;48.458;7.930;2022-11-23T02:47:07;8.20;99.90
14099;DHT22;7126;48.458;7.930;2022-11-23T02:49:33;8.20;99.90
14099;DHT22;7126;48.458;7.930;2022-11-23T02:51:59;8.20;99.90
14099;DHT22;7126;48.458;7.930;2022-11-23T02:54:25;8.20;99.90
14099;DHT22;7126;48.458;7.930;2022-11-23T02:56:51;8.10;99.90
14099;DHT22;7126;48.458;7.930;2022-11-23T02:59:16;8.10;99.90
14099;DHT22;7126;48.458;7.930;2022-11-23T03:01:42;8.10;99.90
14099;DHT22;7126;48.458;7.930;2022-11-23T03:04:08;8.10;99.90
14099;DHT22;7126;48.458;7.930;2022-11-23T03:06:35;8.10;99.90
14099;DHT22;7126;48.458;7.930;2022-11-23T03:09:00;8.10;99.90
14099;DHT22;7126;48.458;7.930;2022-11-23T03:11:26;8.10;99.90
14099;DHT22;7126;48.458;7.930;2022-11-23T03:13:51;8.00;99.90
14099;DHT22;7126;48.458;7.930;2022-11-23T03:16:17;8.00;99.90
14099;DHT22;7126;48.458;7.930;2022-11-23T03:18:43;7.90;99.90
14099;DHT22;7126;48.458;7.930;2022-11-23T03:21:08;7.90;99.90
14099;DHT22;7126;48.458;7.930;2022-11-23T03:23:34;7.90;99.90
14099;DHT22;7126;48.458;7.930;2022-11-23T03:26:00;7.90;99.90
14099;DHT22;7126;48.458;7.930;2022-11-23T03:28:25;7.80;99.90
14099;DHT22;7126;48.458;7.930;2022-11-23T03:30:51;7.80;99.90
14099;DHT22;7126;48.458;7.930;2022-11-23T03:33:17;7.80;99.90
14099;DHT22;7126;48.458;7.930;2022-11-23T03:35:43;7.70;99.90
14099;DHT22;7126;48.458;7.930;2022-11-23T03:38:08;7.60;99.90
14099;DHT22;7126;48.458;7.930;2022-11-23T03:40:34;7.60;99.90
14099;DHT22;7126;48.458;7.930;2022-11-23T03:43:00;7.50;99.90
14099;DHT22;7126;48.458;7.930;2022-11-23T03:45:25;7.50;99.90
14099;DHT22;7126;48.458;7.930;2022-11-23T03:47:51;7.50;99.90
14099;DHT22;7126;48.458;7.930;2022-11-23T03:50:16;7.50;99.90
14099;DHT22;7126;48.458;7.930;2022-11-23T03:52:42;7.50;99.90
14099;DHT22;7126;48.458;7.930;2022-11-23T03:55:08;7.40;99.90
14099;DHT22;7126;48.458;7.930;2022-11-23T03:57:33;7.40;99.90
14099;DHT22;7126;48.458;7.930;2022-11-23T03:59:59;7.40;99.90
14099;DHT22;7126;48.458;7.930;2022-11-23T04:02:24;7.40;99.90
14099;DHT22;7126;48.458;7.930;2022-11-23T04:04:50;7.40;99.90
14099;DHT22;7126;48.458;7.930;2022-11-23T04:07:16;7.30;99.90
14099;DHT22;7126;48.458;7.930;2022-11-23T04:09:41;7.30;99.90
14099;DHT22;7126;48.458;7.930;2022-11-23T04:12:08;7.30;99.90
14099;DHT22;7126;48.458;7.930;2022-11-23T04:14:34;7.30;99.90
14099;DHT22;7126;48.458;7.930;2022-11-23T04:17:00;7.30;99.90
14099;DHT22;7126;48.458;7.930;2022-11-23T04:19:27;7.30;99.90
14099;DHT22;7126;48.458;7.930;2022-11-23T04:21:53;7.30;99.90
14099;DHT22;7126;48.458;7.930;2022-11-23T04:24:18;7.30;99.90
14099;DHT22;7126;48.458;7.930;2022-11-23T04:26:44;7.30;99.90
14099;DHT22;7126;48.458;7.930;2022-11-23T04:29:09;7.30;99.90
14099;DHT22;7126;48.458;7.930;2022-11-23T04:31:35;7.30;99.90
14099;DHT22;7126;48.458;7.930;2022-11-23T04:34:01;7.40;99.90
14099;DHT22;7126;48.458;7.930;2022-11-23T04:36:26;7.30;99.90
14099;DHT22;7126;48.458;7.930;2022-11-23T04:38:52;7.40;99.90
14099;DHT22;7126;48.458;7.930;2022-11-23T04:41:18;7.40;99.90
14099;DHT22;7126;48.458;7.930;2022-11-23T04:43:46;7.40;99.90
14099;DHT22;7126;48.458;7.930;2022-11-23T04:46:11;7.50;99.90
14099;DHT22;7126;48.458;7.930;2022-11-23T04:48:37;7.50;99.90
14099;DHT22;7126;48.458;7.930;2022-11-23T04:51:02;7.40;99.90
14099;DHT22;7126;48.458;7.930;2022-11-23T04:53:28;7.40;99.90
14099;DHT22;7126;48.458;7.930;2022-11-23T04:55:53;7.50;99.90
14099;DHT22;7126;48.458;7.930;2022-11-23T04:58:19;7.50;99.90
14099;DHT22;7126;48.458;7.930;2022-11-23T05:00:44;7.50;99.90
14099;DHT22;7126;48.458;7.930;2022-11-23T05:03:10;7.50;99.90
14099;DHT22;7126;48.458;7.930;2022-11-23T05:05:37;7.50;99.90
14099;DHT22;7126;48.458;7.930;2022-11-23T05:08:03;7.60;99.90
14099;DHT22;7126;48.458;7.930;2022-11-23T05:10:30;7.50;99.90
14099;DHT22;7126;48.458;7.930;2022-11-23T05:12:55;7.60;99.90
14099;DHT22;7126;48.458;7.930;2022-11-23T05:15:21;7.60;99.90
14099;DHT22;7126;48.458;7.930;2022-11-23T05:17:46;7.50;99.90
14099;DHT22;7126;48.458;7.930;2022-11-23T05:20:12;7.50;99.90
14099;DHT22;7126;48.458;7.930;2022-11-23T05:22:38;7.50;99.90
14099;DHT22;7126;48.458;7.930;2022-11-23T05:25:03;7.60;99.90
14099;DHT22;7126;48.458;7.930;2022-11-23T05:27:29;7.60;99.90
14099;DHT22;7126;48.458;7.930;2022-11-23T05:29:55;7.60;99.90
14099;DHT22;7126;48.458;7.930;2022-11-23T05:32:20;7.60;99.90
14099;DHT22;7126;48.458;7.930;2022-11-23T05:34:46;7.60;99.90
14099;DHT22;7126;48.458;7.930;2022-11-23T05:37:11;7.60;99.90
14099;DHT22;7126;48.458;7.930;2022-11-23T05:39:37;7.60;99.90
14099;DHT22;7126;48.458;7.930;2022-11-23T05:42:03;7.60;99.90
14099;DHT22;7126;48.458;7.930;2022-11-23T05:44:29;7.60;99.90
14099;DHT22;7126;48.458;7.930;2022-11-23T05:46:54;7.50;99.90
14099;DHT22;7126;48.458;7.930;2022-11-23T05:49:20;7.40;99.90
14099;DHT22;7126;48.458;7.930;2022-11-23T05:51:46;7.40;99.90
14099;DHT22;7126;48.458;7.930;2022-11-23T05:54:11;7.30;99.90
14099;DHT22;7126;48.458;7.930;2022-11-23T05:56:37;7.20;99.90
14099;DHT22;7126;48.458;7.930;2022-11-23T05:59:03;7.10;99.90
14099;DHT22;7126;48.458;7.930;2022-11-23T06:01:29;7.10;99.90
14099;DHT22;7126;48.458;7.930;2022-11-23T06:03:56;7.00;99.90
14099;DHT22;7126;48.458;7.930;2022-11-23T06:06:22;7.00;99.90
14099;DHT22;7126;48.458;7.930;2022-11-23T06:08:47;7.00;99.90
14099;DHT22;7126;48.458;7.930;2022-11-23T06:11:13;7.00;99.90
14099;DHT22;7126;48.458;7.930;2022-11-23T06:13:38;7.00;99.90
14099;DHT22;7126;48.458;7.930;2022-11-23T06:16:04;6.90;99.90
14099;DHT22;7126;48.458;7.930;2022-11-23T06:18:30;6.90;99.90
14099;DHT22;7126;48.458;7.930;2022-11-23T06:20:59;6.80;99.90
14099;DHT22;7126;48.458;7.930;2022-11-23T06:23:25;6.70;99.90
14099;DHT22;7126;48.458;7.930;2022-11-23T06:25:51;6.70;99.90
14099;DHT22;7126;48.458;7.930;2022-11-23T06:28:17;6.60;99.90
14099;DHT22;7126;48.458;7.930;2022-11-23T06:30:42;6.60;99.90
14099;DHT22;7126;48.458;7.930;2022-11-23T06:33:08;6.60;99.90
14099;DHT22;7126;48.458;7.930;2022-11-23T06:35:34;6.50;99.90
14099;DHT22;7126;48.458;7.930;2022-11-23T06:37:59;6.50;99.90
14099;DHT22;7126;48.458;7.930;2022-11-23T06:40:25;6.50;99.90
14099;DHT22;7126;48.458;7.930;2022-11-23T06:42:57;6.40;99.90
14099;DHT22;7126;48.458;7.930;2022-11-23T06:45:22;6.40;99.90
14099;DHT22;7126;48.458;7.930;2022-11-23T06:47:48;6.40;99.90
14099;DHT22;7126;48.458;7.930;2022-11-23T06:50:14;6.30;99.90
14099;DHT22;7126;48.458;7.930;2022-11-23T06:52:40;6.40;99.90
14099;DHT22;7126;48.458;7.930;2022-11-23T06:55:05;6.40;99.90
14099;DHT22;7126;48.458;7.930;2022-11-23T06:57:31;6.30;99.90
14099;DHT22;7126;48.458;7.930;2022-11-23T06:59:57;6.20;99.90
14099;DHT22;7126;48.458;7.930;2022-11-23T07:02:22;6.20;99.90
14099;DHT22;7126;48.458;7.930;2022-11-23T07:04:50;6.10;99.90
14099;DHT22;7126;48.458;7.930;2022-11-23T07:07:15;6.10;99.90
14099;DHT22;7126;48.458;7.930;2022-11-23T07:09:41;6.10;99.90
14099;DHT22;7126;48.458;7.930;2022-11-23T07:12:06;6.10;99.90
14099;DHT22;7126;48.458;7.930;2022-11-23T07:14:32;6.10;99.90
14099;DHT22;7126;48.458;7.930;2022-11-23T07:16:58;6.10;99.90
14099;DHT22;7126;48.458;7.930;2022-11-23T07:19:23;6.00;99.90
14099;DHT22;7126;48.458;7.930;2022-11-23T07:21:49;6.00;99.90
14099;DHT22;7126;48.458;7.930;2022-11-23T07:24:14;6.10;99.90
14099;DHT22;7126;48.458;7.930;2022-11-23T07:26:40;6.00;99.90
14099;DHT22;7126;48.458;7.930;2022-11-23T07:29:05;6.10;99.90
14099;DHT22;7126;48.458;7.930;2022-11-23T07:31:31;6.20;99.90
14099;DHT22;7126;48.458;7.930;2022-11-23T07:33:57;6.20;99.90
14099;DHT22;7126;48.458;7.930;2022-11-23T07:36:22;6.20;99.90
14099;DHT22;7126;48.458;7.930;2022-11-23T07:38:48;6.20;99.90
14099;DHT22;7126;48.458;7.930;2022-11-23T07:41:14;6.10;99.90
14099;DHT22;7126;48.458;7.930;2022-11-23T07:43:39;6.00;99.90
14099;DHT22;7126;48.458;7.930;2022-11-23T07:46:05;6.10;99.90
14099;DHT22;7126;48.458;7.930;2022-11-23T07:48:30;6.10;99.90
14099;DHT22;7126;48.458;7.930;2022-11-23T07:50:56;6.10;99.90
14099;DHT22;7126;48.458;7.930;2022-11-23T07:53:21;6.10;99.90
14099;DHT22;7126;48.458;7.930;2022-11-23T07:55:48;6.10;99.90
14099;DHT22;7126;48.458;7.930;2022-11-23T07:58:13;6.10;99.90
14099;DHT22;7126;48.458;7.930;2022-11-23T08:00:39;6.20;99.90
14099;DHT22;7126;48.458;7.930;2022-11-23T08:03:04;6.20;99.90
14099;DHT22;7126;48.458;7.930;2022-11-23T08:05:31;6.20;99.90
14099;DHT22;7126;48.458;7.930;2022-11-23T08:07:58;6.20;99.90
14099;DHT22;7126;48.458;7.930;2022-11-23T08:10:26;6.10;99.90
14099;DHT22;7126;48.458;7.930;2022-11-23T08:12:51;6.10;99.90
14099;DHT22;7126;48.458;7.930;2022-11-23T08:15:17;6.10;99.90
14099;DHT22;7126;48.458;7.930;2022-11-23T08:17:42;6.20;99.90
14099;DHT22;7126;48.458;7.930;2022-11-23T08:20:08;6.20;99.90
14099;DHT22;7126;48.458;7.930;2022-11-23T08:22:34;6.30;99.90
14099;DHT22;7126;48.458;7.930;2022-11-23T08:24:59;6.30;99.90
14099;DHT22;7126;48.458;7.930;2022-11-23T08:27:25;6.40;99.90
14099;DHT22;7126;48.458;7.930;2022-11-23T08:29:50;6.40;99.90
14099;DHT22;7126;48.458;7.930;2022-11-23T08:32:16;6.50;99.90
14099;DHT22;7126;48.458;7.930;2022-11-23T08:34:42;6.50;99.90
14099;DHT22;7126;48.458;7.930;2022-11-23T08:37:08;6.60;99.90
14099;DHT22;7126;48.458;7.930;2022-11-23T08:39:34;6.70;99.90
14099;DHT22;7126;48.458;7.930;2022-11-23T08:41:59;6.70;99.90
14099;DHT22;7126;48.458;7.930;2022-11-23T08:44:25;6.80;99.90
14099;DHT22;7126;48.458;7.930;2022-11-23T08:46:50;6.80;99.90
14099;DHT22;7126;48.458;7.930;2022-11-23T08:49:16;7.00;99.90
14099;DHT22;7126;48.458;7.930;2022-11-23T08:51:42;7.00;99.90
14099;DHT22;7126;48.458;7.930;2022-11-23T08:54:07;7.10;99.90
14099;DHT22;7126;48.458;7.930;2022-11-23T08:56:33;7.20;99.90
14099;DHT22;7126;48.458;7.930;2022-11-23T08:58:58;7.30;99.90
14099;DHT22;7126;48.458;7.930;2022-11-23T09:01:24;7.40;99.90
14099;DHT22;7126;48.458;7.930;2022-11-23T09:03:49;7.50;99.90
14099;DHT22;7126;48.458;7.930;2022-11-23T09:06:15;7.60;99.90
14099;DHT22;7126;48.458;7.930;2022-11-23T09:08:41;7.60;99.90
14099;DHT22;7126;48.458;7.930;2022-11-23T09:11:09;7.70;99.90
14099;DHT22;7126;48.458;7.930;2022-11-23T09:13:35;7.70;99.90
14099;DHT22;7126;48.458;7.930;2022-11-23T09:16:05;7.80;99.90
14099;DHT22;7126;48.458;7.930;2022-11-23T09:18:31;8.00;99.90
14099;DHT22;7126;48.458;7.930;2022-11-23T09:21:02;8.00;99.90
14099;DHT22;7126;48.458;7.930;2022-11-23T09:23:28;8.10;99.90
14099;DHT22;7126;48.458;7.930;2022-11-23T09:25:57;8.20;99.90
14099;DHT22;7126;48.458;7.930;2022-11-23T09:28:23;8.30;99.90
14099;DHT22;7126;48.458;7.930;2022-11-23T09:30:49;8.40;99.90
14099;DHT22;7126;48.458;7.930;2022-11-23T09:33:14;8.50;99.90
14099;DHT22;7126;48.458;7.930;2022-11-23T09:35:40;8.50;99.90
14099;DHT22;7126;48.458;7.930;2022-11-23T09:38:06;8.60;99.90
14099;DHT22;7126;48.458;7.930;2022-11-23T09:40:39;8.70;99.90
14099;DHT22;7126;48.458;7.930;2022-11-23T09:43:26;8.90;99.90
14099;DHT22;7126;48.458;7.930;2022-11-23T09:45:56;9.10;99.90
14099;DHT22;7126;48.458;7.930;2022-11-23T09:48:37;9.20;99.90
14099;DHT22;7126;48.458;7.930;2022-11-23T09:51:15;9.30;99.90
14099;DHT22;7126;48.458;7.930;2022-11-23T09:54:01;9.30;99.90
14099;DHT22;7126;48.458;7.930;2022-11-23T09:56:33;9.40;99.90
14099;DHT22;7126;48.458;7.930;2022-11-23T09:59:03;9.40;99.90
14099;DHT22;7126;48.458;7.930;2022-11-23T10:01:30;9.50;99.90
14099;DHT22;7126;48.458;7.930;2022-11-23T10:03:56;9.50;99.90
14099;DHT22;7126;48.458;7.930;2022-11-23T10:06:27;9.60;99.90
14099;DHT22;7126;48.458;7.930;2022-11-23T10:14:54;9.70;99.90
14099;DHT22;7126;48.458;7.930;2022-11-23T10:22:56;9.90;99.90
14099;DHT22;7126;48.458;7.930;2022-11-23T10:25:23;9.90;99.90
14099;DHT22;7126;48.458;7.930;2022-11-23T10:27:53;10.00;99.90
14099;DHT22;7126;48.458;7.930;2022-11-23T10:30:20;10.00;99.90
14099;DHT22;7126;48.458;7.930;2022-11-23T10:32:48;10.00;99.90
14099;DHT22;7126;48.458;7.930;2022-11-23T10:35:30;10.00;99.90
14099;DHT22;7126;48.458;7.930;2022-11-23T10:38:09;10.10;99.90
14099;DHT22;7126;48.458;7.930;2022-11-23T10:40:38;10.10;99.90
14099;DHT22;7126;48.458;7.930;2022-11-23T10:43:23;10.20;99.90
14099;DHT22;7126;48.458;7.930;2022-11-23T10:45:50;10.40;99.90
14099;DHT22;7126;48.458;7.930;2022-11-23T10:48:35;10.50;99.90
14099;DHT22;7126;48.458;7.930;2022-11-23T10:54:00;10.60;99.90
14099;DHT22;7126;48.458;7.930;2022-11-23T10:56:26;10.60;99.90
14099;DHT22;7126;48.458;7.930;2022-11-23T10:58:52;10.70;99.90
14099;DHT22;7126;48.458;7.930;2022-11-23T11:01:21;10.80;99.90
14099;DHT22;7126;48.458;7.930;2022-11-23T11:03:48;10.80;99.90
14099;DHT22;7126;48.458;7.930;2022-11-23T11:06:21;10.70;99.90
14099;DHT22;7126;48.458;7.930;2022-11-23T11:09:02;10.80;99.90
14099;DHT22;7126;48.458;7.930;2022-11-23T11:11:34;11.00;99.90
14099;DHT22;7126;48.458;7.930;2022-11-23T11:16:37;11.20;99.90
14099;DHT22;7126;48.458;7.930;2022-11-23T11:19:34;11.30;99.90
14099;DHT22;7126;48.458;7.930;2022-11-23T11:22:02;11.40;99.90
14099;DHT22;7126;48.458;7.930;2022-11-23T11:24:43;11.40;99.90
14099;DHT22;7126;48.458;7.930;2022-11-23T11:27:14;11.40;99.90
14099;DHT22;7126;48.458;7.930;2022-11-23T11:37:43;11.10;99.90
14099;DHT22;7126;48.458;7.930;2022-11-23T11:42:53;10.90;99.90
14099;DHT22;7126;48.458;7.930;2022-11-23T11:45:24;10.90;99.90
14099;DHT22;7126;48.458;7.930;2022-11-23T11:50:27;10.90;99.90
14099;DHT22;7126;48.458;7.930;2022-11-23T11:53:10;10.90;99.90
14099;DHT22;7126;48.458;7.930;2022-11-23T11:58:16;10.90;99.90
14099;DHT22;7126;48.458;7.930;2022-11-23T12:00:42;10.90;99.90
14099;DHT22;7126;48.458;7.930;2022-11-23T12:06:19;11.00;99.90
14099;DHT22;7126;48.458;7.930;2022-11-23T12:09:12;11.00;99.90
14099;DHT22;7126;48.458;7.930;2022-11-23T12:11:40;11.10;99.90
14099;DHT22;7126;48.458;7.930;2022-11-23T12:14:11;11.30;99.90
14099;DHT22;7126;48.458;7.930;2022-11-23T12:22:21;13.90;99.90
14099;DHT22;7126;48.458;7.930;2022-11-23T12:36:13;17.50;99.90
14099;DHT22;7126;48.458;7.930;2022-11-23T12:39:02;17.60;99.90
14099;DHT22;7126;48.458;7.930;2022-11-23T12:49:53;20.50;99.90
14099;DHT22;7126;48.458;7.930;2022-11-23T12:58:05;23.60;97.00
14099;DHT22;7126;48.458;7.930;2022-11-23T13:00:43;24.30;95.00
14099;DHT22;7126;48.458;7.930;2022-11-23T13:14:30;20.80;97.90
14099;DHT22;7126;48.458;7.930;2022-11-23T13:17:04;19.10;99.90
14099;DHT22;7126;48.458;7.930;2022-11-23T13:22:23;16.70;99.90
14099;DHT22;7126;48.458;7.930;2022-11-23T13:27:29;15.60;99.90
14099;DHT22;7126;48.458;7.930;2022-11-23T13:29:56;15.20;99.90
14099;DHT22;7126;48.458;7.930;2022-11-23T13:40:25;15.10;99.90
14099;DHT22;7126;48.458;7.930;2022-11-23T13:42:54;17.40;99.90
14099;DHT22;7126;48.458;7.930;2022-11-23T13:45:30;19.80;99.90
14099;DHT22;7126;48.458;7.930;2022-11-23T13:48:24;19.00;99.90
14099;DHT22;7126;48.458;7.930;2022-11-23T13:53:25;16.30;99.90
14099;DHT22;7126;48.458;7.930;2022-11-23T13:55:56;15.50;99.90
14099;DHT22;7126;48.458;7.930;2022-11-23T14:00:48;14.20;99.90
14099;DHT22;7126;48.458;7.930;2022-11-23T14:08:49;13.20;99.90
14099;DHT22;7126;48.458;7.930;2022-11-23T14:11:21;13.00;99.90
14099;DHT22;7126;48.458;7.930;2022-11-23T14:13:57;12.90;99.90
14099;DHT22;7126;48.458;7.930;2022-11-23T14:17:00;12.70;99.90
14099;DHT22;7126;48.458;7.930;2022-11-23T14:22:21;12.40;99.90
14099;DHT22;7126;48.458;7.930;2022-11-23T14:25:07;12.40;99.90
14099;DHT22;7126;48.458;7.930;2022-11-23T14:30:39;12.20;99.90
14099;DHT22;7126;48.458;7.930;2022-11-23T14:36:13;12.10;99.90
14099;DHT22;7126;48.458;7.930;2022-11-23T14:41:23;12.00;99.90
14099;DHT22;7126;48.458;7.930;2022-11-23T14:43:50;11.90;99.90
14099;DHT22;7126;48.458;7.930;2022-11-23T14:46:20;11.90;99.90
14099;DHT22;7126;48.458;7.930;2022-11-23T14:48:49;11.90;99.90
14099;DHT22;7126;48.458;7.930;2022-11-23T14:51:17;11.90;99.90
14099;DHT22;7126;48.458;7.930;2022-11-23T14:53:46;11.80;99.90
14099;DHT22;7126;48.458;7.930;2022-11-23T14:56:43;11.70;99.90
14099;DHT22;7126;48.458;7.930;2022-11-23T14:59:33;11.70;99.90
14099;DHT22;7126;48.458;7.930;2022-11-23T15:07:47;11.60;99.90
14099;DHT22;7126;48.458;7.930;2022-11-23T15:13:22;11.60;99.90
14099;DHT22;7126;48.458;7.930;2022-11-23T15:15:50;11.60;99.90
14099;DHT22;7126;48.458;7.930;2022-11-23T15:18:28;11.60;99.90
14099;DHT22;7126;48.458;7.930;2022-11-23T15:20:54;11.60;99.90
14099;DHT22;7126;48.458;7.930;2022-11-23T15:23:23;11.50;99.90
14099;DHT22;7126;48.458;7.930;2022-11-23T15:25:53;11.50;99.90
14099;DHT22;7126;48.458;7.930;2022-11-23T15:28:27;11.50;99.90
14099;DHT22;7126;48.458;7.930;2022-11-23T15:30:53;11.40;99.90
14099;DHT22;7126;48.458;7.930;2022-11-23T15:33:20;11.40;99.90
14099;DHT22;7126;48.458;7.930;2022-11-23T15:35:48;11.30;99.90
14099;DHT22;7126;48.458;7.930;2022-11-23T15:38:15;11.30;99.90
14099;DHT22;7126;48.458;7.930;2022-11-23T15:40:43;11.30;99.90
14099;DHT22;7126;48.458;7.930;2022-11-23T15:43:13;11.20;99.90
14099;DHT22;7126;48.458;7.930;2022-11-23T15:48:15;11.00;99.90
14099;DHT22;7126;48.458;7.930;2022-11-23T15:53:16;10.70;99.90
14099;DHT22;7126;48.458;7.930;2022-11-23T15:55:42;10.50;99.90
14099;DHT22;7126;48.458;7.930;2022-11-23T15:58:08;10.40;99.90
14099;DHT22;7126;48.458;7.930;2022-11-23T16:00:38;10.40;99.90
14099;DHT22;7126;48.458;7.930;2022-11-23T16:06:08;10.10;99.90
14099;DHT22;7126;48.458;7.930;2022-11-23T16:08:39;9.90;99.90
14099;DHT22;7126;48.458;7.930;2022-11-23T16:13:46;9.80;99.90
14099;DHT22;7126;48.458;7.930;2022-11-23T16:16:14;9.70;99.90
14099;DHT22;7126;48.458;7.930;2022-11-23T16:18:46;9.70;99.90
14099;DHT22;7126;48.458;7.930;2022-11-23T16:21:16;9.60;99.90
14099;DHT22;7126;48.458;7.930;2022-11-23T16:23:53;9.60;99.90
14099;DHT22;7126;48.458;7.930;2022-11-23T16:26:31;9.50;99.90
14099;DHT22;7126;48.458;7.930;2022-11-23T16:28:58;9.50;99.90
14099;DHT22;7126;48.458;7.930;2022-11-23T16:31:40;9.50;99.90
14099;DHT22;7126;48.458;7.930;2022-11-23T16:34:16;9.50;99.90
14099;DHT22;7126;48.458;7.930;2022-11-23T16:36:42;9.40;99.90
14099;DHT22;7126;48.458;7.930;2022-11-23T16:39:08;9.30;99.90
14099;DHT22;7126;48.458;7.930;2022-11-23T16:41:33;9.20;99.90
14099;DHT22;7126;48.458;7.930;2022-11-23T16:43:59;9.30;99.90
14099;DHT22;7126;48.458;7.930;2022-11-23T16:46:24;9.30;99.90
14099;DHT22;7126;48.458;7.930;2022-11-23T16:48:50;9.30;99.90
14099;DHT22;7126;48.458;7.930;2022-11-23T16:51:18;9.20;99.90
14099;DHT22;7126;48.458;7.930;2022-11-23T16:53:45;9.20;99.90
14099;DHT22;7126;48.458;7.930;2022-11-23T16:56:21;9.10;99.90
14099;DHT22;7126;48.458;7.930;2022-11-23T16:58:47;9.10;99.90
14099;DHT22;7126;48.458;7.930;2022-11-23T17:01:22;9.00;99.90
14099;DHT22;7126;48.458;7.930;2022-11-23T17:03:48;9.10;99.90
14099;DHT22;7126;48.458;7.930;2022-11-23T17:06:15;9.10;99.90
14099;DHT22;7126;48.458;7.930;2022-11-23T17:08:42;9.20;99.90
14099;DHT22;7126;48.458;7.930;2022-11-23T17:11:17;9.20;99.90
14099;DHT22;7126;48.458;7.930;2022-11-23T17:13:45;9.20;99.90
14099;DHT22;7126;48.458;7.930;2022-11-23T17:16:17;9.20;99.90
14099;DHT22;7126;48.458;7.930;2022-11-23T17:18:43;9.20;99.90
14099;DHT22;7126;48.458;7.930;2022-11-23T17:21:09;9.20;99.90
14099;DHT22;7126;48.458;7.930;2022-11-23T17:23:35;9.20;99.90
14099;DHT22;7126;48.458;7.930;2022-11-23T17:26:06;9.20;99.90
14099;DHT22;7126;48.458;7.930;2022-11-23T17:28:32;9.10;99.90
14099;DHT22;7126;48.458;7.930;2022-11-23T17:30:59;9.20;99.90
14099;DHT22;7126;48.458;7.930;2022-11-23T17:33:25;9.10;99.90
14099;DHT22;7126;48.458;7.930;2022-11-23T17:35:52;9.20;99.90
14099;DHT22;7126;48.458;7.930;2022-11-23T17:38:22;9.20;99.90
14099;DHT22;7126;48.458;7.930;2022-11-23T17:40:49;9.10;99.90
14099;DHT22;7126;48.458;7.930;2022-11-23T17:43:14;9.10;99.90
14099;DHT22;7126;48.458;7.930;2022-11-23T17:45:41;9.20;99.90
14099;DHT22;7126;48.458;7.930;2022-11-23T17:48:11;9.20;99.90
14099;DHT22;7126;48.458;7.930;2022-11-23T17:50:37;9.30;99.90
14099;DHT22;7126;48.458;7.930;2022-11-23T17:53:04;9.30;99.90
14099;DHT22;7126;48.458;7.930;2022-11-23T17:55:29;9.30;99.90
14099;DHT22;7126;48.458;7.930;2022-11-23T17:57:55;9.30;99.90
14099;DHT22;7126;48.458;7.930;2022-11-23T18:00:21;9.30;99.90
14099;DHT22;7126;48.458;7.930;2022-11-23T18:02:48;9.30;99.90
14099;DHT22;7126;48.458;7.930;2022-11-23T18:05:14;9.30;99.90
14099;DHT22;7126;48.458;7.930;2022-11-23T18:07:40;9.40;99.90
14099;DHT22;7126;48.458;7.930;2022-11-23T18:10:08;9.40;99.90
14099;DHT22;7126;48.458;7.930;2022-11-23T18:12:34;9.50;99.90
14099;DHT22;7126;48.458;7.930;2022-11-23T18:15:00;9.50;99.90
14099;DHT22;7126;48.458;7.930;2022-11-23T18:17:25;9.50;99.90
14099;DHT22;7126;48.458;7.930;2022-11-23T18:19:52;9.50;99.90